Time;durP1;ratioP1;P1;durP2;ratioP2;P2;SDS_P1;SDS_P2;PMS_P1;PMS_P2;Temp;Humidity;BMP_temperature;BMP_pressure;BME280_temperature;BME280_humidity;BME280_pressure;Samples;Min_cycle;Max_cycle;Signal;HPM_P1;HPM_P2
2023/08/31 00:01:09;;;;;;;0.00;0.00;;;;;;;13.33;100.00;100770.59;5070563;28;20036;-48
2023/08/31 00:03:35;;;;;;;0.00;0.00;;;;;;;13.39;100.00;100761.66;5067025;28;20040;-49
2023/08/31 00:06:04;;;;;;;0.00;0.00;;;;;;;13.38;100.00;100760.00;5070889;28;20028;-48
2023/08/31 00:08:30;;;;;;;0.00;0.00;;;;;;;13.37;100.00;100761.03;5070248;28;20343;-51
2023/08/31 00:11:02;;;;;;;0.00;0.00;;;;;;;13.41;100.00;100752.53;5070387;28;20305;-53
2023/08/31 00:13:28;;;;;;;0.00;0.00;;;;;;;13.41;100.00;100753.38;5070636;28;20181;-51
2023/08/31 00:15:57;;;;;;;0.00;0.00;;;;;;;13.32;100.00;100747.31;5071003;28;20425;-50
2023/08/31 00:18:22;;;;;;;0.00;0.00;;;;;;;13.31;100.00;100748.34;5070768;28;20021;-49
2023/08/31 00:20:49;;;;;;;0.00;0.00;;;;;;;13.31;100.00;100742.09;5070800;28;20036;-48
2023/08/31 00:23:14;;;;;;;0.00;0.00;;;;;;;13.28;100.00;100737.94;5071261;28;20028;-49
2023/08/31 00:25:43;;;;;;;0.00;0.00;;;;;;;13.21;100.00;100731.63;5070594;28;20021;-46
2023/08/31 00:28:09;;;;;;;0.00;0.00;;;;;;;13.15;100.00;100735.97;5070475;28;20029;-50
2023/08/31 00:30:34;;;;;;;0.00;0.00;;;;;;;13.13;100.00;100738.03;5070352;28;20029;-49
2023/08/31 00:33:00;;;;;;;0.00;0.00;;;;;;;13.10;100.00;100740.31;5070421;28;20402;-50
2023/08/31 00:35:29;;;;;;;0.00;0.00;;;;;;;13.00;100.00;100734.44;5070090;28;20035;-49
2023/08/31 00:37:58;;;;;;;0.00;0.00;;;;;;;12.92;100.00;100748.94;5070375;28;20120;-49
2023/08/31 00:40:24;;;;;;;0.00;0.00;;;;;;;12.82;100.00;100745.78;5070387;28;20032;-49
2023/08/31 00:42:49;;;;;;;0.00;0.00;;;;;;;12.74;100.00;100747.63;5069794;28;20025;-49
2023/08/31 00:45:15;;;;;;;0.00;0.00;;;;;;;12.71;100.00;100750.69;5070339;28;20467;-50
2023/08/31 00:47:40;;;;;;;0.00;0.00;;;;;;;12.65;100.00;100750.66;5070435;28;20436;-47
2023/08/31 00:50:07;;;;;;;0.00;0.00;;;;;;;12.54;100.00;100749.34;5052449;28;20059;-48
2023/08/31 00:52:33;;;;;;;0.00;0.00;;;;;;;12.51;100.00;100749.75;5052164;28;20044;-47
2023/08/31 00:55:00;;;;;;;0.00;0.00;;;;;;;12.48;100.00;100753.69;5070183;28;20058;-48
2023/08/31 00:57:27;;;;;;;0.00;0.00;;;;;;;12.45;100.00;100740.59;5070654;28;20063;-49
2023/08/31 00:59:52;;;;;;;0.00;0.00;;;;;;;12.45;100.00;100742.41;5070383;28;20024;-48
2023/08/31 01:02:51;;;;;;;0.00;0.00;;;;;;;12.45;100.00;100739.72;5058888;28;20056;-49
2023/08/31 01:05:37;;;;;;;0.00;0.00;;;;;;;12.47;100.00;100740.38;5049011;28;20025;-49
2023/08/31 01:08:25;;;;;;;0.00;0.00;;;;;;;12.51;100.00;100736.25;5058521;28;20460;-47
2023/08/31 01:11:08;;;;;;;0.00;0.00;;;;;;;12.54;100.00;100745.81;5066392;28;20041;-48
2023/08/31 01:13:35;;;;;;;0.00;0.00;;;;;;;12.60;100.00;100758.53;5049811;28;20124;-47
2023/08/31 01:16:04;;;;;;;0.00;0.00;;;;;;;12.71;100.00;100785.81;5050770;28;20033;-50
2023/08/31 01:18:31;;;;;;;0.00;0.00;;;;;;;12.78;100.00;100790.44;5043992;28;20048;-43
2023/08/31 01:21:30;;;;;;;0.00;0.00;;;;;;;12.75;100.00;100786.25;5047817;28;20168;-43
2023/08/31 01:23:58;;;;;;;0.00;0.00;;;;;;;12.74;100.00;100769.22;5038616;28;20363;-42
2023/08/31 01:26:24;;;;;;;0.00;0.00;;;;;;;12.75;100.00;100770.06;5052670;28;20017;-51
2023/08/31 01:28:50;;;;;;;0.00;0.00;;;;;;;12.72;100.00;100770.47;5053385;28;20108;-52
2023/08/31 01:31:16;;;;;;;0.00;0.00;;;;;;;12.70;100.00;100777.91;5053296;28;20037;-51
2023/08/31 01:33:41;;;;;;;0.00;0.00;;;;;;;12.66;100.00;100768.53;5055440;28;20029;-50
2023/08/31 01:36:21;;;;;;;0.00;0.00;;;;;;;12.59;100.00;100765.78;5052210;28;20509;-47
2023/08/31 01:38:50;;;;;;;0.00;0.00;;;;;;;12.57;100.00;100773.25;5052218;28;20411;-48
2023/08/31 01:41:17;;;;;;;0.00;0.00;;;;;;;12.52;100.00;100768.44;5053718;28;20545;-48
2023/08/31 01:43:43;;;;;;;0.00;0.00;;;;;;;12.51;100.00;100769.47;5051084;28;20025;-45
2023/08/31 01:46:09;;;;;;;0.00;0.00;;;;;;;12.51;100.00;100780.28;5059929;28;20029;-45
2023/08/31 01:48:40;;;;;;;0.00;0.00;;;;;;;12.49;100.00;100787.72;5051889;28;20040;-47
2023/08/31 01:51:06;;;;;;;0.00;0.00;;;;;;;12.47;100.00;100789.78;5050287;28;20064;-45
2023/08/31 01:53:32;;;;;;;0.00;0.00;;;;;;;12.45;100.00;100799.97;5053017;28;20029;-46
2023/08/31 01:55:57;;;;;;;0.00;0.00;;;;;;;12.40;100.00;100793.44;5053305;28;20035;-50
2023/08/31 01:58:22;;;;;;;0.00;0.00;;;;;;;12.43;100.00;100804.72;5053075;28;20035;-45
2023/08/31 02:00:48;;;;;;;0.00;0.00;;;;;;;12.37;100.00;100800.06;5056546;28;20025;-45
2023/08/31 02:03:13;;;;;;;0.00;0.00;;;;;;;12.40;100.00;100798.84;5082770;28;20048;-48
2023/08/31 02:05:38;;;;;;;0.00;0.00;;;;;;;12.30;100.00;100799.22;5072960;28;20124;-47
2023/08/31 02:08:04;;;;;;;0.00;0.00;;;;;;;12.27;100.00;100799.59;5073068;28;20398;-47
2023/08/31 02:10:29;;;;;;;0.00;0.00;;;;;;;12.27;100.00;100794.19;5072822;28;20028;-43
2023/08/31 02:12:55;;;;;;;0.00;0.00;;;;;;;12.27;100.00;100794.19;5088925;28;20541;-46
2023/08/31 02:15:20;;;;;;;0.00;0.00;;;;;;;12.25;100.00;100797.09;5072456;28;20062;-45
2023/08/31 02:17:46;;;;;;;0.00;0.00;;;;;;;12.27;100.00;100788.81;5077138;28;20020;-46
2023/08/31 02:20:13;;;;;;;0.00;0.00;;;;;;;12.30;100.00;100799.22;5082144;28;20562;-49
2023/08/31 02:22:39;;;;;;;0.00;0.00;;;;;;;12.34;100.00;100792.38;5072549;28;20028;-51
2023/08/31 02:25:05;;;;;;;0.00;0.00;;;;;;;12.46;100.00;100788.13;5075307;28;20105;-49
2023/08/31 02:27:30;;;;;;;0.00;0.00;;;;;;;12.56;100.00;100787.78;5072840;28;20459;-45
2023/08/31 02:29:56;;;;;;;0.00;0.00;;;;;;;12.66;100.00;100782.84;5072593;28;20028;-46
2023/08/31 02:32:21;;;;;;;0.00;0.00;;;;;;;12.73;100.00;100774.81;5072964;28;20031;-46
2023/08/31 02:34:46;;;;;;;0.00;0.00;;;;;;;12.85;100.00;100770.53;5072506;28;20024;-45
2023/08/31 02:37:12;;;;;;;0.00;0.00;;;;;;;12.90;100.00;100768.06;5072925;28;20021;-47
2023/08/31 02:39:37;;;;;;;0.00;0.00;;;;;;;12.91;100.00;100758.94;5072421;28;20024;-48
2023/08/31 02:42:05;;;;;;;0.00;0.00;;;;;;;12.93;100.00;100762.28;5072990;28;20040;-51
2023/08/31 02:44:30;;;;;;;0.00;0.00;;;;;;;13.04;100.00;100757.34;5072201;28;20036;-47
2023/08/31 02:46:56;;;;;;;0.00;0.00;;;;;;;13.06;100.00;100760.66;5072288;28;20028;-50
2023/08/31 02:49:21;;;;;;;0.00;0.00;;;;;;;13.10;100.00;100746.56;5071848;28;20024;-47
2023/08/31 02:51:47;;;;;;;0.00;0.00;;;;;;;13.16;100.00;100753.00;5072171;28;20021;-48
2023/08/31 02:54:13;;;;;;;0.00;0.00;;;;;;;13.19;100.00;100752.59;5072063;28;20490;-48
2023/08/31 02:56:38;;;;;;;0.00;0.00;;;;;;;13.21;100.00;100745.13;5072036;28;20060;-46
2023/08/31 02:59:03;;;;;;;0.00;0.00;;;;;;;13.27;100.00;100741.69;5071509;28;20021;-49
2023/08/31 03:01:29;;;;;;;0.00;0.00;;;;;;;13.33;100.00;100735.47;5071225;28;20016;-48
2023/08/31 03:03:54;;;;;;;0.00;0.00;;;;;;;13.33;100.00;100735.47;5072170;28;20024;-48
2023/08/31 03:06:19;;;;;;;0.00;0.00;;;;;;;13.34;100.00;100739.00;5071824;28;20297;-49
2023/08/31 03:08:45;;;;;;;0.00;0.00;;;;;;;13.35;100.00;100738.78;5070753;28;20120;-50
2023/08/31 03:11:14;;;;;;;0.00;0.00;;;;;;;13.36;100.00;100743.16;5071454;28;20063;-49
2023/08/31 03:13:39;;;;;;;0.00;0.00;;;;;;;13.36;100.00;100742.31;5071398;28;20028;-48
2023/08/31 03:16:04;;;;;;;0.00;0.00;;;;;;;13.35;100.00;100728.00;5071441;28;20036;-47
2023/08/31 03:18:30;;;;;;;0.00;0.00;;;;;;;13.37;100.00;100735.88;5071297;28;20017;-51
2023/08/31 03:20:56;;;;;;;0.00;0.00;;;;;;;13.38;100.00;100737.56;5071503;28;20025;-50
2023/08/31 03:23:21;;;;;;;0.00;0.00;;;;;;;13.42;100.00;100733.41;5071919;28;20029;-48
2023/08/31 03:25:46;;;;;;;0.00;0.00;;;;;;;13.39;100.00;100734.63;5071028;28;20041;-49
2023/08/31 03:28:12;;;;;;;0.00;0.00;;;;;;;13.39;100.00;100733.81;5071300;28;20112;-49
2023/08/31 03:30:37;;;;;;;0.00;0.00;;;;;;;13.37;100.00;100734.00;5053813;28;20036;-47
2023/08/31 03:33:03;;;;;;;0.00;0.00;;;;;;;13.38;100.00;100732.97;5073523;28;20250;-48
2023/08/31 03:35:29;;;;;;;0.00;0.00;;;;;;;13.39;100.00;100733.81;5074311;28;20043;-48
2023/08/31 03:37:55;;;;;;;0.00;0.00;;;;;;;13.43;100.00;100737.78;5071814;28;20021;-50
2023/08/31 03:40:20;;;;;;;0.00;0.00;;;;;;;13.45;100.00;100737.56;5070844;28;20028;-48
2023/08/31 03:42:45;;;;;;;0.00;0.00;;;;;;;13.47;100.00;100738.19;5070927;28;20016;-48
2023/08/31 03:45:11;;;;;;;0.00;0.00;;;;;;;13.55;100.00;100741.53;5069789;28;20510;-51
2023/08/31 03:47:37;;;;;;;0.00;0.00;;;;;;;13.59;100.00;100740.13;5070817;28;20029;-48
2023/08/31 03:50:02;;;;;;;0.00;0.00;;;;;;;13.64;100.00;100735.94;5070904;28;20106;-49
2023/08/31 03:52:28;;;;;;;0.00;0.00;;;;;;;13.67;100.00;100740.97;5071014;28;20025;-50
2023/08/31 03:54:54;;;;;;;0.00;0.00;;;;;;;13.66;100.00;100740.09;5070962;28;20728;-50
2023/08/31 03:57:20;;;;;;;0.00;0.00;;;;;;;13.61;100.00;100756.13;5070620;28;20044;-50
2023/08/31 03:59:45;;;;;;;0.00;0.00;;;;;;;13.64;100.00;100747.63;5070826;28;20027;-52
2023/08/31 04:02:10;;;;;;;0.00;0.00;;;;;;;13.67;100.00;100738.25;5070376;28;20052;-50
2023/08/31 04:04:36;;;;;;;0.00;0.00;;;;;;;13.70;100.00;100741.38;5070915;28;20021;-48
2023/08/31 04:07:01;;;;;;;0.00;0.00;;;;;;;13.76;100.00;100745.97;5070225;28;20035;-51
2023/08/31 04:09:27;;;;;;;0.00;0.00;;;;;;;13.76;100.00;100748.66;5070762;28;20170;-49
2023/08/31 04:11:52;;;;;;;0.00;0.00;;;;;;;13.76;100.00;100745.97;5070614;28;20090;-50
2023/08/31 04:14:18;;;;;;;0.00;0.00;;;;;;;13.80;100.00;100749.09;5070447;28;20028;-52
2023/08/31 04:16:44;;;;;;;0.00;0.00;;;;;;;13.83;100.00;100752.22;5069081;28;20062;-50
2023/08/31 04:19:09;;;;;;;0.00;0.00;;;;;;;13.89;100.00;100755.16;5069553;28;20024;-51
2023/08/31 04:21:35;;;;;;;0.00;0.00;;;;;;;13.89;100.00;100755.16;5070275;28;20034;-49
2023/08/31 04:24:01;;;;;;;0.00;0.00;;;;;;;13.93;100.00;100761.78;5070705;28;20027;-51
2023/08/31 04:26:27;;;;;;;0.00;0.00;;;;;;;13.92;100.00;100766.38;5070018;28;20032;-46
2023/08/31 04:28:53;;;;;;;0.00;0.00;;;;;;;13.92;100.00;100762.84;5070588;28;20026;-52
2023/08/31 04:31:18;;;;;;;0.00;0.00;;;;;;;13.88;100.00;100767.03;5070562;28;20024;-49
2023/08/31 04:33:45;;;;;;;0.00;0.00;;;;;;;13.87;100.00;100765.34;5070617;28;20032;-48
2023/08/31 04:36:10;;;;;;;0.00;0.00;;;;;;;13.87;100.00;100759.94;5071055;28;20021;-48
2023/08/31 04:38:37;;;;;;;0.00;0.00;;;;;;;13.86;100.00;100766.38;5082818;28;20156;-49
2023/08/31 04:41:03;;;;;;;0.00;0.00;;;;;;;13.83;100.00;100763.03;5075886;28;20037;-47
2023/08/31 04:43:28;;;;;;;0.00;0.00;;;;;;;13.82;100.00;100764.09;5080465;28;20355;-50
2023/08/31 04:45:54;;;;;;;0.00;0.00;;;;;;;13.86;100.00;100778.03;5085335;28;20070;-49
2023/08/31 04:48:20;;;;;;;0.00;0.00;;;;;;;13.87;100.00;100776.97;5070531;28;20108;-49
2023/08/31 04:50:45;;;;;;;0.00;0.00;;;;;;;13.90;100.00;100779.31;5070886;28;20104;-50
2023/08/31 04:53:11;;;;;;;0.00;0.00;;;;;;;13.92;100.00;100781.78;5074443;28;20050;-52
2023/08/31 04:55:37;;;;;;;0.00;0.00;;;;;;;13.96;100.00;100772.22;5074675;28;20437;-49
2023/08/31 04:58:03;;;;;;;0.00;0.00;;;;;;;14.01;100.00;100769.75;5074525;28;20032;-49
2023/08/31 05:00:28;;;;;;;0.00;0.00;;;;;;;14.02;100.00;100777.63;5072384;28;20055;-48
2023/08/31 05:02:53;;;;;;;0.00;0.00;;;;;;;14.04;100.00;100777.44;5072524;28;20148;-48
2023/08/31 05:05:19;;;;;;;0.00;0.00;;;;;;;14.04;100.00;100785.56;5078712;28;20455;-47
2023/08/31 05:07:44;;;;;;;0.00;0.00;;;;;;;14.00;100.00;100789.72;5070710;28;20082;-48
2023/08/31 05:10:10;;;;;;;0.00;0.00;;;;;;;14.01;100.00;100785.97;5072161;28;20054;-48
2023/08/31 05:12:35;;;;;;;0.00;0.00;;;;;;;14.04;100.00;100796.38;5074666;28;20032;-47
2023/08/31 05:15:00;;;;;;;0.00;0.00;;;;;;;14.04;100.00;100799.91;5074391;28;20017;-48
2023/08/31 05:17:26;;;;;;;0.00;0.00;;;;;;;14.10;100.00;100800.97;5074349;28;20026;-47
2023/08/31 05:19:51;;;;;;;0.00;0.00;;;;;;;14.10;100.00;100809.09;5074143;28;20052;-52
2023/08/31 05:22:17;;;;;;;0.00;0.00;;;;;;;14.13;100.00;100811.38;5057721;28;20072;-48
2023/08/31 05:24:43;;;;;;;0.00;0.00;;;;;;;14.14;100.00;100806.78;5054294;28;20051;-52
2023/08/31 05:27:08;;;;;;;0.00;0.00;;;;;;;14.11;100.00;100808.03;5056825;28;20032;-49
2023/08/31 05:29:33;;;;;;;0.00;0.00;;;;;;;14.14;100.00;100810.34;5073734;28;20542;-51
2023/08/31 05:31:59;;;;;;;0.00;0.00;;;;;;;14.19;100.00;100807.88;5073831;28;20083;-48
2023/08/31 05:34:24;;;;;;;0.00;0.00;;;;;;;14.20;100.00;100805.97;5073971;28;20028;-51
2023/08/31 05:36:50;;;;;;;0.00;0.00;;;;;;;14.17;100.00;100812.63;5073531;28;20025;-51
2023/08/31 05:39:16;;;;;;;0.00;0.00;;;;;;;14.15;100.00;100809.31;5073521;28;20032;-49
2023/08/31 05:41:42;;;;;;;0.00;0.00;;;;;;;14.18;100.00;100814.28;5073821;28;20038;-49
2023/08/31 05:44:08;;;;;;;0.00;0.00;;;;;;;14.19;100.00;100813.28;5073755;28;20319;-50
2023/08/31 05:46:33;;;;;;;0.00;0.00;;;;;;;14.17;100.00;100815.34;5073396;28;20036;-47
2023/08/31 05:48:59;;;;;;;0.00;0.00;;;;;;;14.20;100.00;100822.22;5074454;28;20056;-49
2023/08/31 05:51:24;;;;;;;0.00;0.00;;;;;;;14.21;100.00;100818.47;5051405;28;20031;-49
2023/08/31 05:53:50;;;;;;;0.00;0.00;;;;;;;14.24;100.00;100818.91;5051437;28;20051;-49
2023/08/31 05:56:15;;;;;;;0.00;0.00;;;;;;;14.30;100.00;100821.78;5052570;28;20029;-47
2023/08/31 05:58:40;;;;;;;0.00;0.00;;;;;;;14.31;100.00;100824.31;5067782;28;20488;-48
2023/08/31 06:01:07;;;;;;;0.00;0.00;;;;;;;14.39;100.00;100825.97;5067295;28;20362;-47
2023/08/31 06:03:32;;;;;;;0.00;0.00;;;;;;;14.38;100.00;100822.44;5090787;28;20048;-48
2023/08/31 06:05:58;;;;;;;0.00;0.00;;;;;;;14.46;100.00;100834.94;5085822;28;20099;-50
2023/08/31 06:08:24;;;;;;;0.00;0.00;;;;;;;14.83;100.00;100830.78;5072863;28;20035;-50
2023/08/31 06:10:49;;;;;;;0.00;0.00;;;;;;;15.44;100.00;100834.19;5068704;28;20032;-49
2023/08/31 06:13:15;;;;;;;0.00;0.00;;;;;;;16.32;100.00;100828.94;5069391;28;20033;-46
2023/08/31 06:15:40;;;;;;;0.00;0.00;;;;;;;17.10;100.00;100830.38;5072200;28;20052;-49
2023/08/31 06:18:06;;;;;;;0.00;0.00;;;;;;;17.34;100.00;100834.91;5072472;28;20052;-49
2023/08/31 06:20:32;;;;;;;0.10;0.00;;;;;;;17.03;100.00;100835.03;5071204;28;20039;-49
2023/08/31 06:22:58;;;;;;;0.00;0.00;;;;;;;16.92;100.00;100831.19;5051443;28;20475;-46
2023/08/31 06:25:24;;;;;;;0.00;0.00;;;;;;;16.72;100.00;100836.78;5062043;28;20025;-48
2023/08/31 06:27:49;;;;;;;0.00;0.00;;;;;;;16.57;100.00;100831.66;5072861;28;20033;-51
2023/08/31 06:30:18;;;;;;;0.00;0.00;;;;;;;16.33;100.00;100838.75;5072700;28;20020;-48
2023/08/31 06:32:44;;;;;;;0.00;0.00;;;;;;;16.25;100.00;100836.31;5071977;28;20028;-45
2023/08/31 06:35:11;;;;;;;0.00;0.00;;;;;;;16.16;100.00;100826.75;5072547;28;20028;-51
2023/08/31 06:37:37;;;;;;;0.00;0.00;;;;;;;16.09;100.00;100839.53;5072016;28;20467;-50
2023/08/31 06:40:02;;;;;;;0.00;0.00;;;;;;;16.00;100.00;100831.66;5071482;28;20074;-48
2023/08/31 06:42:27;;;;;;;0.00;0.00;;;;;;;16.12;100.00;100836.41;5074357;28;20020;-49
2023/08/31 06:44:55;;;;;;;0.00;0.00;;;;;;;16.58;100.00;100835.22;5074856;28;20047;-45
2023/08/31 06:47:20;;;;;;;;;;;;;;;17.59;100.00;100835.88;5072519;28;20032;-47
2023/08/31 06:49:46;;;;;;;0.00;0.00;;;;;;;18.63;100.00;100836.47;5071903;28;19912;-49
2023/08/31 06:52:11;;;;;;;0.00;0.00;;;;;;;19.59;100.00;100841.63;5071760;28;20123;-46
2023/08/31 06:54:36;;;;;;;0.00;0.00;;;;;;;20.37;100.00;100848.34;5070681;28;20054;-51
2023/08/31 06:57:02;;;;;;;0.00;0.00;;;;;;;21.43;100.00;100845.66;5059606;28;20036;-51
2023/08/31 06:59:28;;;;;;;0.00;0.00;;;;;;;21.78;100.00;100857.28;5061126;28;20082;-48
2023/08/31 07:01:54;;;;;;;0.00;0.00;;;;;;;22.46;96.14;100860.47;5063184;28;20048;-47
2023/08/31 07:04:19;;;;;;;0.00;0.00;;;;;;;22.68;94.12;100857.66;5063482;28;20226;-48
2023/08/31 07:06:44;;;;;;;0.00;0.00;;;;;;;23.07;91.92;100862.91;5061985;28;20139;-50
2023/08/31 07:09:10;;;;;;;0.00;0.00;;;;;;;23.34;88.92;100866.34;5061520;28;20040;-47
2023/08/31 07:11:35;;;;;;;0.00;0.00;;;;;;;23.52;88.45;100867.00;5062920;28;20029;-50
2023/08/31 07:14:01;;;;;;;0.00;0.00;;;;;;;23.58;83.75;100858.47;5063637;28;20461;-45
2023/08/31 07:16:26;;;;;;;0.00;0.00;;;;;;;23.41;84.88;100872.44;5064872;28;20024;-48
2023/08/31 07:18:52;;;;;;;0.00;0.00;;;;;;;23.91;82.27;100870.19;5065052;28;20032;-48
2023/08/31 07:21:17;;;;;;;0.00;0.00;;;;;;;23.99;83.99;100880.66;5065018;28;20310;-46
2023/08/31 07:23:43;;;;;;;0.00;0.00;;;;;;;24.06;85.72;100872.97;5065270;28;20085;-45
2023/08/31 07:26:08;;;;;;;0.00;0.00;;;;;;;24.27;83.77;100876.56;5046797;28;20098;-48
2023/08/31 07:28:34;;;;;;;0.00;0.00;;;;;;;24.64;82.96;100871.97;5067848;28;20036;-48
2023/08/31 07:31:06;;;;;;;0.00;0.00;;;;;;;24.74;80.83;100872.78;5063851;28;20108;-44
2023/08/31 07:33:32;;;;;;;0.00;0.00;;;;;;;24.58;81.32;100871.13;5065689;28;20036;-49
2023/08/31 07:35:58;;;;;;;0.00;0.00;;;;;;;24.70;84.22;100882.72;5064255;28;20447;-49
2023/08/31 07:38:24;;;;;;;0.00;0.00;;;;;;;24.87;82.20;100881.59;5061956;28;20111;-47
2023/08/31 07:40:50;;;;;;;0.00;0.00;;;;;;;24.01;82.26;100883.13;5063723;28;20391;-49
2023/08/31 07:43:15;;;;;;;0.00;0.00;;;;;;;24.37;84.02;100884.03;5064169;28;20032;-48
2023/08/31 07:45:41;;;;;;;0.00;0.00;;;;;;;24.38;83.98;100888.44;5065081;28;20037;-45
2023/08/31 07:48:06;;;;;;;0.00;0.00;;;;;;;24.88;83.02;100894.25;5063054;28;20473;-46
2023/08/31 07:50:34;;;;;;;0.00;0.00;;;;;;;25.61;79.30;100886.41;5065553;28;20496;-48
2023/08/31 07:52:59;;;;;;;0.00;0.00;;;;;;;25.72;81.21;100891.88;5064136;28;20111;-47
2023/08/31 07:55:25;;;;;;;0.00;0.00;;;;;;;25.74;79.08;100889.66;5063683;28;20115;-44
2023/08/31 07:57:50;;;;;;;0.00;0.00;;;;;;;25.67;76.80;100898.22;5066793;28;20028;-45
2023/08/31 08:00:16;;;;;;;0.00;0.00;;;;;;;25.78;77.96;100896.28;5062602;28;20264;-48
2023/08/31 08:02:41;;;;;;;0.00;0.00;;;;;;;26.02;76.32;100902.78;5045610;28;20370;-48
2023/08/31 08:05:07;;;;;;;0.00;0.00;;;;;;;25.88;78.53;100901.75;5063989;28;20032;-46
2023/08/31 08:07:32;;;;;;;0.00;0.00;;;;;;;25.93;75.46;100912.75;5061951;28;20032;-47
2023/08/31 08:09:58;;;;;;;0.00;0.00;;;;;;;25.96;75.11;100914.97;5062022;28;20078;-46
2023/08/31 08:12:24;;;;;;;0.00;0.00;;;;;;;26.04;72.82;100913.53;5043750;28;20055;-50
2023/08/31 08:14:50;;;;;;;;;;;;;;;25.79;74.86;100914.44;5063881;28;20056;-46
2023/08/31 08:17:15;;;;;;;0.00;0.00;;;;;;;25.85;76.42;100913.34;5063692;28;20005;-48
2023/08/31 08:19:40;;;;;;;0.00;0.00;;;;;;;26.21;74.95;100915.94;5063556;28;20072;-47
2023/08/31 08:22:06;;;;;;;0.00;0.00;;;;;;;26.10;75.99;100919.84;5063500;28;20471;-46
2023/08/31 08:24:32;;;;;;;0.00;0.00;;;;;;;26.21;72.24;100926.97;5062619;28;20170;-47
2023/08/31 08:26:57;;;;;;;0.00;0.00;;;;;;;26.17;70.55;100932.22;5062759;28;20029;-44
2023/08/31 08:29:22;;;;;;;0.00;0.00;;;;;;;26.57;70.39;100927.59;5059785;28;20479;-47
2023/08/31 08:31:48;;;;;;;0.00;0.00;;;;;;;26.86;69.62;100935.09;5066431;28;20040;-47
2023/08/31 08:34:13;;;;;;;0.00;0.00;;;;;;;27.16;70.00;100931.22;5065734;28;20064;-50
2023/08/31 08:36:38;;;;;;;0.00;0.00;;;;;;;26.65;66.83;100926.16;5067397;28;20056;-48
2023/08/31 08:39:04;;;;;;;0.00;0.00;;;;;;;26.36;68.17;100929.63;5066166;28;20049;-46
2023/08/31 08:41:29;;;;;;;0.00;0.00;;;;;;;26.24;67.84;100932.72;5063683;28;20074;-48
2023/08/31 08:43:56;;;;;;;0.00;0.00;;;;;;;25.91;69.31;100939.81;5044322;28;20036;-46
2023/08/31 08:46:22;;;;;;;;;;;;;;;26.33;68.67;100952.28;5044291;28;20039;-45
2023/08/31 08:48:47;;;;;;;0.00;0.00;;;;;;;26.37;69.96;100938.72;5043812;28;19913;-48
2023/08/31 08:51:13;;;;;;;0.00;0.00;;;;;;;26.37;71.13;100947.81;5059517;28;20036;-50
2023/08/31 08:53:42;;;;;;;0.00;0.00;;;;;;;26.65;71.58;100948.25;5062696;28;20041;-46
2023/08/31 08:56:07;;;;;;;0.00;0.00;;;;;;;26.70;71.50;100943.50;5066408;28;20044;-47
2023/08/31 08:58:33;;;;;;;0.00;0.00;;;;;;;27.49;67.60;100959.09;5061790;28;20028;-47
2023/08/31 09:00:58;;;;;;;0.00;0.00;;;;;;;27.35;68.89;100957.03;5062242;28;20040;-47
2023/08/31 09:03:24;;;;;;;0.00;0.00;;;;;;;27.03;67.06;100959.53;5058175;28;20132;-49
2023/08/31 09:05:51;;;;;;;0.00;0.00;;;;;;;27.10;69.06;100960.84;5062172;28;20276;-47
2023/08/31 09:08:16;;;;;;;0.00;0.00;;;;;;;26.90;66.95;100956.31;5062265;28;20020;-49
2023/08/31 09:10:45;;;;;;;0.00;0.00;;;;;;;27.27;68.76;100954.91;5062843;28;20045;-46
2023/08/31 09:13:13;;;;;;;0.00;0.00;;;;;;;26.90;65.29;100967.34;5062613;28;20348;-47
2023/08/31 09:15:43;;;;;;;0.00;0.00;;;;;;;27.07;65.60;100960.59;5066442;28;20502;-44
2023/08/31 09:18:14;;;;;;;0.00;0.00;;;;;;;27.65;66.36;100960.59;5063247;28;20040;-46
2023/08/31 09:20:47;;;;;;;0.00;0.00;;;;;;;27.61;61.80;100965.06;5064132;28;20036;-45
2023/08/31 09:23:13;;;;;;;0.00;0.00;;;;;;;27.72;64.32;100971.28;5064220;28;20020;-45
2023/08/31 09:25:48;;;;;;;0.00;0.00;;;;;;;27.73;66.89;100968.25;5064028;28;20390;-46
2023/08/31 09:28:14;;;;;;;0.00;0.00;;;;;;;27.53;65.36;100963.75;5066525;28;20032;-48
2023/08/31 09:30:40;;;;;;;0.00;0.00;;;;;;;27.18;65.06;100966.91;5048249;28;20039;-46
2023/08/31 09:33:16;;;;;;;0.00;0.00;;;;;;;27.09;64.73;100963.88;5068103;28;20041;-46
2023/08/31 09:35:50;;;;;;;0.00;0.00;;;;;;;27.24;63.72;100983.13;5068330;28;20492;-47
2023/08/31 09:38:16;;;;;;;0.00;0.00;;;;;;;26.79;64.30;100965.78;5071774;28;20033;-48
2023/08/31 09:40:41;;;;;;;0.00;0.00;;;;;;;25.53;69.17;100971.59;5068626;28;20040;-49
2023/08/31 09:43:07;;;;;;;0.00;0.00;;;;;;;24.14;74.74;100970.59;5068237;28;20417;-48
2023/08/31 09:45:34;;;;;;;0.00;0.00;;;;;;;24.28;77.99;100969.00;5049636;28;20029;-46
2023/08/31 09:48:03;;;;;;;0.00;0.00;;;;;;;24.41;80.04;100962.16;5068257;28;20025;-47
2023/08/31 09:50:33;;;;;;;0.00;0.00;;;;;;;25.02;73.92;100961.44;5067691;28;20020;-46
2023/08/31 09:53:03;;;;;;;0.00;0.00;;;;;;;24.64;71.84;100971.84;5067928;28;20025;-50
2023/08/31 09:55:30;;;;;;;0.00;0.00;;;;;;;24.44;76.60;100963.56;5049512;28;20036;-50
2023/08/31 09:58:00;;;;;;;0.00;0.00;;;;;;;24.13;75.46;100976.38;5068045;28;20066;-49
2023/08/31 10:00:27;;;;;;;0.00;0.00;;;;;;;23.54;78.65;100969.16;5067755;28;20029;-47
2023/08/31 10:02:55;;;;;;;0.00;0.00;;;;;;;23.06;77.72;100985.56;5049788;28;20048;-48
2023/08/31 10:05:21;;;;;;;0.00;0.00;;;;;;;22.79;80.79;100978.19;5067385;28;20536;-47
2023/08/31 10:07:47;;;;;;;0.00;0.00;;;;;;;22.78;80.75;100978.47;5067462;28;20024;-47
2023/08/31 10:10:13;;;;;;;0.00;0.00;;;;;;;22.69;79.80;100980.00;5050084;28;20116;-46
2023/08/31 10:12:39;;;;;;;0.00;0.00;;;;;;;22.74;79.84;100978.13;5049242;28;20036;-47
2023/08/31 10:15:06;;;;;;;0.00;0.00;;;;;;;22.62;77.78;100980.22;5049796;28;20063;-46
2023/08/31 10:17:32;;;;;;;0.00;0.00;;;;;;;22.56;77.76;100981.25;5049079;28;20433;-48
2023/08/31 10:19:57;;;;;;;0.00;0.00;;;;;;;22.26;80.54;100981.75;5067831;28;20025;-46
2023/08/31 10:22:23;;;;;;;0.00;0.00;;;;;;;21.53;79.40;100984.59;5067372;28;20311;-48
2023/08/31 10:25:06;;;;;;;0.00;0.00;;;;;;;21.54;84.13;100975.31;5067334;28;20085;-48
2023/08/31 10:27:42;;;;;;;0.00;0.00;;;;;;;21.60;82.55;100971.56;5067183;28;20040;-47
2023/08/31 10:30:23;;;;;;;0.00;0.00;;;;;;;21.65;85.88;100982.59;5067735;28;20032;-45
2023/08/31 10:33:07;;;;;;;0.00;0.00;;;;;;;21.74;82.86;100984.88;5065828;28;20332;-47
2023/08/31 10:35:48;;;;;;;0.00;0.00;;;;;;;21.90;85.52;100984.81;5066768;28;20482;-46
2023/08/31 10:38:14;;;;;;;0.00;0.00;;;;;;;21.84;82.87;100982.28;5067802;28;20154;-46
2023/08/31 10:40:39;;;;;;;0.03;0.03;;;;;;;21.84;82.16;100990.50;5066960;28;20127;-45
2023/08/31 10:43:14;;;;;;;0.00;0.00;;;;;;;21.90;80.75;100989.47;5067176;28;20065;-46
2023/08/31 10:45:46;;;;;;;0.00;0.00;;;;;;;21.73;81.82;100983.25;5066846;28;20138;-46
2023/08/31 10:48:11;;;;;;;0.00;0.00;;;;;;;21.71;83.19;100986.22;5066571;28;20024;-48
2023/08/31 10:50:47;;;;;;;0.05;0.00;;;;;;;21.70;85.25;100984.56;5066368;28;20539;-48
2023/08/31 10:53:12;;;;;;;0.00;0.00;;;;;;;21.60;84.91;100984.44;5067497;28;20047;-45
2023/08/31 10:55:53;;;;;;;0.00;0.00;;;;;;;21.48;86.20;100988.09;5066536;28;20044;-46
2023/08/31 10:58:19;;;;;;;0.20;0.20;;;;;;;21.60;83.77;100976.22;5064541;28;20417;-48
2023/08/31 11:00:52;;;;;;;0.20;0.20;;;;;;;21.56;84.47;100978.59;5048085;28;20078;-47
2023/08/31 11:03:17;;;;;;;0.40;0.40;;;;;;;21.57;86.71;100995.88;5067626;28;20068;-47
2023/08/31 11:05:52;;;;;;;0.00;0.00;;;;;;;21.61;85.07;100992.38;5068904;28;20115;-47
2023/08/31 11:08:24;;;;;;;0.00;0.00;;;;;;;22.15;84.30;100986.25;5070080;28;20029;-50
2023/08/31 11:10:51;;;;;;;0.00;0.00;;;;;;;22.46;85.98;100987.47;5068025;28;20538;-48
2023/08/31 11:13:19;;;;;;;0.00;0.00;;;;;;;22.81;80.94;100993.56;5065567;28;20128;-50
2023/08/31 11:15:46;;;;;;;0.00;0.00;;;;;;;23.11;78.66;100987.53;5066538;28;20024;-49
2023/08/31 11:18:12;;;;;;;0.00;0.00;;;;;;;23.29;76.80;100989.88;5066643;28;20032;-48
2023/08/31 11:20:37;;;;;;;0.00;0.00;;;;;;;23.41;77.98;100998.78;5066206;28;20040;-46